Tommy E. — WCX6752 — position and weather

sailwx.info

Track history (hours):
 
Tides and Currents Weather Stations Pressure Air Temp Water Temp Dewpoint Dewpoint Depression Visibility Wind Speed Wind Dir Waves Ship Positions

Tommy E.

Owner: INC, Echo Towing Service, BAYTOWN, TX. More information available from US FCC via Universal Licensing System and Coast Guard Vessel Documentation Center.

Last reported at 2017-Oct-21 00:56 UTC. Time now 2017-Oct-22 06:10 UTC.
Position N 29°45' W 095°06'.

Length 17 m.

Type: Towing. MMSI: 366969670.

Date/timePositionNaut miles runAvg speedWind from/ knotsBaromVisibWave heightAir tempDewpointWater temp
2017-Oct-21 00:56N 29°45' W 095°06'0 0.0
2017-Oct-21 00:24N 29°45' W 095°06'3 0.1
2017-Oct-19 23:18N 29°44' W 095°03'9 0.3
2017-Oct-18 18:11N 29°43' W 095°13'3 6.5
2017-Oct-18 17:47N 29°44' W 095°16'0 0.3
2017-Oct-18 16:04N 29°44' W 095°17'0 6.2
2017-Oct-18 16:00N 29°44' W 095°16'2 4.3
2017-Oct-18 15:26N 29°44' W 095°13'4 6.0
2017-Oct-18 14:44N 29°44' W 095°09'3 2.2
2017-Oct-18 13:34N 29°46' W 095°06'1 2.2
2017-Oct-18 12:53N 29°46' W 095°05'2 1.4
2017-Oct-18 11:50N 29°48' W 095°04'3 1.2
2017-Oct-18 08:54N 29°46' W 095°07'0 0.0
2017-Oct-18 08:30N 29°46' W 095°07'0 0.0
2017-Oct-18 07:00N 29°46' W 095°07'0 0.0
2017-Oct-18 06:30N 29°46' W 095°07'0 0.0
2017-Oct-18 05:59N 29°46' W 095°07'0 0.0
2017-Oct-18 05:30N 29°46' W 095°07'0 0.0
2017-Oct-18 04:59N 29°46' W 095°07'0 0.0
2017-Oct-18 04:30N 29°46' W 095°07'0 0.0
2017-Oct-18 04:00N 29°46' W 095°07'0 0.0
2017-Oct-18 03:26N 29°46' W 095°07'0 0.0
2017-Oct-18 02:22N 29°46' W 095°07'0 0.0
2017-Oct-18 01:55N 29°46' W 095°07'0 0.2
2017-Oct-18 01:30N 29°46' W 095°07'2 0.2
2017-Oct-17 14:26N 29°44' W 095°08'5 5.0
2017-Oct-17 13:30N 29°44' W 095°13'0 0.5
2017-Oct-17 12:45N 29°44' W 095°14'0 0.1
2017-Oct-17 12:23N 29°44' W 095°14'3 7.2
2017-Oct-17 11:56N 29°45' W 095°10'3 0.5
2017-Oct-17 05:45N 29°46' W 095°07'0 0.8
2017-Oct-17 05:27N 29°46' W 095°07'2 0.0
2017-Oct-15 11:14N 29°46' W 095°05'0 0.0
2017-Oct-15 10:44N 29°46' W 095°05'0 0.0
2017-Oct-15 10:30N 29°46' W 095°05'0 0.0
2017-Oct-15 09:58N 29°46' W 095°05'0 0.0
2017-Oct-15 08:48N 29°46' W 095°05'0 0.0
2017-Oct-15 08:29N 29°46' W 095°05'5 0.7
2017-Oct-15 00:18N 29°42' W 095°01'1 5.1
2017-Oct-15 00:00N 29°42' W 094°59'3 4.9
2017-Oct-14 23:29N 29°39' W 094°58'2 5.0
2017-Oct-14 23:00N 29°37' W 094°58'3 5.5
2017-Oct-14 22:30N 29°37' W 095°01'1 1.1
2017-Oct-14 22:00N 29°37' W 095°02'0 0.0
2017-Oct-14 21:30N 29°37' W 095°02'0 0.0
2017-Oct-14 21:00N 29°37' W 095°02'0 0.0
2017-Oct-14 20:30N 29°37' W 095°02'0 0.0
2017-Oct-14 20:00N 29°37' W 095°02'0 0.0
2017-Oct-14 19:30N 29°37' W 095°02'0 0.0
2017-Oct-14 19:00N 29°37' W 095°02'0 0.0
2017-Oct-14 18:29N 29°37' W 095°02'0 0.0
2017-Oct-14 18:00N 29°37' W 095°02'0 0.0
2017-Oct-14 17:30N 29°37' W 095°02'0 0.0
2017-Oct-14 17:00N 29°37' W 095°02'0 0.0
2017-Oct-14 16:29N 29°37' W 095°02'0 0.0
2017-Oct-14 16:00N 29°37' W 095°02'0 0.0
2017-Oct-14 15:30N 29°37' W 095°02'0 0.0
2017-Oct-14 15:00N 29°37' W 095°02'0 0.0
2017-Oct-14 14:30N 29°37' W 095°02'0 0.0
2017-Oct-14 14:00N 29°37' W 095°02'0 0.0
2017-Oct-14 13:30N 29°37' W 095°02'0 0.0
2017-Oct-14 12:57N 29°37' W 095°02'0 0.0
2017-Oct-14 12:30N 29°37' W 095°02'0 0.0
2017-Oct-14 12:00N 29°37' W 095°02'0 0.0
2017-Oct-14 11:30N 29°37' W 095°02'0 0.0
2017-Oct-14 11:00N 29°37' W 095°02'0 0.0
2017-Oct-14 10:30N 29°37' W 095°02'0 0.0
2017-Oct-14 09:58N 29°37' W 095°02'0 0.0
2017-Oct-14 09:30N 29°37' W 095°02'0 0.0
2017-Oct-14 09:00N 29°37' W 095°02'0 0.0
2017-Oct-14 08:30N 29°37' W 095°02'0 0.0
2017-Oct-14 08:00N 29°37' W 095°02'0 0.0
2017-Oct-14 07:30N 29°37' W 095°02'0 0.0
2017-Oct-14 06:59N 29°37' W 095°02'0 0.0
2017-Oct-14 06:30N 29°37' W 095°02'0 0.3
2017-Oct-14 06:00N 29°37' W 095°01'0 0.3
2017-Oct-14 05:30N 29°37' W 095°02'0 0.1
2017-Oct-14 05:00N 29°37' W 095°01'0 0.3
2017-Oct-14 04:30N 29°37' W 095°01'3 5.9
2017-Oct-14 04:00N 29°37' W 094°58'3 5.3
2017-Oct-14 03:30N 29°40' W 094°58'3 5.5
2017-Oct-14 03:00N 29°42' W 094°60'3 5.4
2017-Oct-14 02:28N 29°44' W 095°02'3 6.0
2017-Oct-14 02:00N 29°46' W 095°05'3 0.1
2017-Oct-12 15:25N 29°44' W 095°08'4 7.2
2017-Oct-12 14:50N 29°43' W 095°13'3 7.4
2017-Oct-12 14:29N 29°43' W 095°16'1 1.4
2017-Oct-12 14:00N 29°44' W 095°15'3 5.5
2017-Oct-12 13:28N 29°44' W 095°12'2 5.0
2017-Oct-12 12:59N 29°44' W 095°09'3 6.0
2017-Oct-12 12:24N 29°43' W 095°13'0 0.8
2017-Oct-12 11:55N 29°44' W 095°14'0 0.4
2017-Oct-12 11:27N 29°44' W 095°13'2 5.2
2017-Oct-12 11:00N 29°45' W 095°11'2 4.6
2017-Oct-12 10:31N 29°44' W 095°09'2 0.4
2017-Oct-12 05:38N 29°46' W 095°07'0 0.0
2017-Oct-12 05:26N 29°46' W 095°07'0 0.1
2017-Oct-12 04:53N 29°46' W 095°07'0 0.1
2017-Oct-12 02:32N 29°46' W 095°07'1 1.5
2017-Oct-12 02:10N 29°46' W 095°06'0 0.4
2017-Oct-12 01:51N 29°46' W 095°06'  
Track history (hours):
 
Tides and Currents Weather Stations Pressure Air Temp Water Temp Dewpoint Dewpoint Depression Visibility Wind Speed Wind Dir Waves Ship Positions

Tommy E.

Owner: INC, Echo Towing Service, BAYTOWN, TX. More information available from US FCC via Universal Licensing System and Coast Guard Vessel Documentation Center.

Last reported at 2017-Oct-21 00:56 UTC. Time now 2017-Oct-22 06:10 UTC.
Position N 29°45' W 095°06'.

Length 17 m.

Type: Towing. MMSI: 366969670.

Date/timePositionNaut miles runAvg speedWind from/ knotsBaromVisibWave heightAir tempDewpointWater temp
2017-Oct-21 00:56N 29°45' W 095°06'0 0.0
2017-Oct-21 00:24N 29°45' W 095°06'3 0.1
2017-Oct-19 23:18N 29°44' W 095°03'9 0.3
2017-Oct-18 18:11N 29°43' W 095°13'3 6.5
2017-Oct-18 17:47N 29°44' W 095°16'0 0.3
2017-Oct-18 16:04N 29°44' W 095°17'0 6.2
2017-Oct-18 16:00N 29°44' W 095°16'2 4.3
2017-Oct-18 15:26N 29°44' W 095°13'4 6.0
2017-Oct-18 14:44N 29°44' W 095°09'3 2.2
2017-Oct-18 13:34N 29°46' W 095°06'1 2.2
2017-Oct-18 12:53N 29°46' W 095°05'2 1.4
2017-Oct-18 11:50N 29°48' W 095°04'3 1.2
2017-Oct-18 08:54N 29°46' W 095°07'0 0.0
2017-Oct-18 08:30N 29°46' W 095°07'0 0.0
2017-Oct-18 07:00N 29°46' W 095°07'0 0.0
2017-Oct-18 06:30N 29°46' W 095°07'0 0.0
2017-Oct-18 05:59N 29°46' W 095°07'0 0.0
2017-Oct-18 05:30N 29°46' W 095°07'0 0.0
2017-Oct-18 04:59N 29°46' W 095°07'0 0.0
2017-Oct-18 04:30N 29°46' W 095°07'0 0.0
2017-Oct-18 04:00N 29°46' W 095°07'0 0.0
2017-Oct-18 03:26N 29°46' W 095°07'0 0.0
2017-Oct-18 02:22N 29°46' W 095°07'0 0.0
2017-Oct-18 01:55N 29°46' W 095°07'0 0.2
2017-Oct-18 01:30N 29°46' W 095°07'2 0.2
2017-Oct-17 14:26N 29°44' W 095°08'5 5.0
2017-Oct-17 13:30N 29°44' W 095°13'0 0.5
2017-Oct-17 12:45N 29°44' W 095°14'0 0.1
2017-Oct-17 12:23N 29°44' W 095°14'3 7.2
2017-Oct-17 11:56N 29°45' W 095°10'3 0.5
2017-Oct-17 05:45N 29°46' W 095°07'0 0.8
2017-Oct-17 05:27N 29°46' W 095°07'2 0.0
2017-Oct-15 11:14N 29°46' W 095°05'0 0.0
2017-Oct-15 10:44N 29°46' W 095°05'0 0.0
2017-Oct-15 10:30N 29°46' W 095°05'0 0.0
2017-Oct-15 09:58N 29°46' W 095°05'0 0.0
2017-Oct-15 08:48N 29°46' W 095°05'0 0.0
2017-Oct-15 08:29N 29°46' W 095°05'5 0.7
2017-Oct-15 00:18N 29°42' W 095°01'1 5.1
2017-Oct-15 00:00N 29°42' W 094°59'3 4.9
2017-Oct-14 23:29N 29°39' W 094°58'2 5.0
2017-Oct-14 23:00N 29°37' W 094°58'3 5.5
2017-Oct-14 22:30N 29°37' W 095°01'1 1.1
2017-Oct-14 22:00N 29°37' W 095°02'0 0.0
2017-Oct-14 21:30N 29°37' W 095°02'0 0.0
2017-Oct-14 21:00N 29°37' W 095°02'0 0.0
2017-Oct-14 20:30N 29°37' W 095°02'0 0.0
2017-Oct-14 20:00N 29°37' W 095°02'0 0.0
2017-Oct-14 19:30N 29°37' W 095°02'0 0.0
2017-Oct-14 19:00N 29°37' W 095°02'0 0.0
2017-Oct-14 18:29N 29°37' W 095°02'0 0.0
2017-Oct-14 18:00N 29°37' W 095°02'0 0.0
2017-Oct-14 17:30N 29°37' W 095°02'0 0.0
2017-Oct-14 17:00N 29°37' W 095°02'0 0.0
2017-Oct-14 16:29N 29°37' W 095°02'0 0.0
2017-Oct-14 16:00N 29°37' W 095°02'0 0.0
2017-Oct-14 15:30N 29°37' W 095°02'0 0.0
2017-Oct-14 15:00N 29°37' W 095°02'0 0.0
2017-Oct-14 14:30N 29°37' W 095°02'0 0.0
2017-Oct-14 14:00N 29°37' W 095°02'0 0.0
2017-Oct-14 13:30N 29°37' W 095°02'0 0.0
2017-Oct-14 12:57N 29°37' W 095°02'0 0.0
2017-Oct-14 12:30N 29°37' W 095°02'0 0.0
2017-Oct-14 12:00N 29°37' W 095°02'0 0.0
2017-Oct-14 11:30N 29°37' W 095°02'0 0.0
2017-Oct-14 11:00N 29°37' W 095°02'0 0.0
2017-Oct-14 10:30N 29°37' W 095°02'0 0.0
2017-Oct-14 09:58N 29°37' W 095°02'0 0.0
2017-Oct-14 09:30N 29°37' W 095°02'0 0.0
2017-Oct-14 09:00N 29°37' W 095°02'0 0.0
2017-Oct-14 08:30N 29°37' W 095°02'0 0.0
2017-Oct-14 08:00N 29°37' W 095°02'0 0.0
2017-Oct-14 07:30N 29°37' W 095°02'0 0.0
2017-Oct-14 06:59N 29°37' W 095°02'0 0.0
2017-Oct-14 06:30N 29°37' W 095°02'0 0.3
2017-Oct-14 06:00N 29°37' W 095°01'0 0.3
2017-Oct-14 05:30N 29°37' W 095°02'0 0.1
2017-Oct-14 05:00N 29°37' W 095°01'0 0.3
2017-Oct-14 04:30N 29°37' W 095°01'3 5.9
2017-Oct-14 04:00N 29°37' W 094°58'3 5.3
2017-Oct-14 03:30N 29°40' W 094°58'3 5.5
2017-Oct-14 03:00N 29°42' W 094°60'3 5.4
2017-Oct-14 02:28N 29°44' W 095°02'3 6.0
2017-Oct-14 02:00N 29°46' W 095°05'3 0.1
2017-Oct-12 15:25N 29°44' W 095°08'4 7.2
2017-Oct-12 14:50N 29°43' W 095°13'3 7.4
2017-Oct-12 14:29N 29°43' W 095°16'1 1.4
2017-Oct-12 14:00N 29°44' W 095°15'3 5.5
2017-Oct-12 13:28N 29°44' W 095°12'2 5.0
2017-Oct-12 12:59N 29°44' W 095°09'3 6.0
2017-Oct-12 12:24N 29°43' W 095°13'0 0.8
2017-Oct-12 11:55N 29°44' W 095°14'0 0.4
2017-Oct-12 11:27N 29°44' W 095°13'2 5.2
2017-Oct-12 11:00N 29°45' W 095°11'2 4.6
2017-Oct-12 10:31N 29°44' W 095°09'2 0.4
2017-Oct-12 05:38N 29°46' W 095°07'0 0.0
2017-Oct-12 05:26N 29°46' W 095°07'0 0.1
2017-Oct-12 04:53N 29°46' W 095°07'0 0.1
2017-Oct-12 02:32N 29°46' W 095°07'1 1.5
2017-Oct-12 02:10N 29°46' W 095°06'0 0.4
2017-Oct-12 01:51N 29°46' W 095°06'  

Dump ship's entire track history